Time;durP1;ratioP1;P1;durP2;ratioP2;P2;SDS_P1;SDS_P2;PMS_P1;PMS_P2;Temp;Humidity;BMP_temperature;BMP_pressure;BME280_temperature;BME280_humidity;BME280_pressure;Samples;Min_cycle;Max_cycle;Signal;HPM_P1;HPM_P2
2021/07/16 00:00:42;;;;;;;21.65;8.60;;;;;;;;;;5111525;28;20106;-65
2021/07/16 00:03:08;;;;;;;25.80;7.50;;;;;;;;;;5110600;28;20030;-64
2021/07/16 00:05:34;;;;;;;22.58;8.45;;;;;;;;;;5110242;28;20027;-65
2021/07/16 00:08:00;;;;;;;18.98;7.45;;;;;;;;;;5110386;28;20551;-65
2021/07/16 00:10:26;;;;;;;19.75;7.78;;;;;;;;;;5109783;28;20035;-65
2021/07/16 00:12:52;;;;;;;18.30;7.15;;;;;;;;;;5110435;28;20087;-66
2021/07/16 00:15:20;;;;;;;18.52;8.27;;;;;;;;;;5110828;28;20024;-64
2021/07/16 00:17:46;;;;;;;22.60;9.48;;;;;;;;;;5109014;28;20125;-64
2021/07/16 00:20:12;;;;;;;23.88;8.70;;;;;;;;;;5111039;28;20032;-65
2021/07/16 00:22:39;;;;;;;24.45;10.55;;;;;;;;;;5111207;27;20039;-65
2021/07/16 00:25:06;;;;;;;21.98;9.20;;;;;;;;;;5110316;28;20023;-65
2021/07/16 00:27:32;;;;;;;19.05;9.00;;;;;;;;;;5111729;28;20030;-65
2021/07/16 00:29:58;;;;;;;22.52;9.93;;;;;;;;;;5111112;28;20034;-65
2021/07/16 00:32:24;;;;;;;23.15;9.93;;;;;;;;;;5110706;28;20036;-65
2021/07/16 00:34:50;;;;;;;21.40;10.45;;;;;;;;;;5109195;28;20035;-65
2021/07/16 00:37:16;;;;;;;23.55;8.88;;;;;;;;;;5108621;28;20026;-64
2021/07/16 00:39:42;;;;;;;21.65;10.20;;;;;;;;;;5110275;28;20096;-64
2021/07/16 00:42:08;;;;;;;23.95;10.70;;;;;;;;;;5110731;28;20027;-66
2021/07/16 00:44:35;;;;;;;27.27;9.57;;;;;;;;;;5108830;28;20028;-66
2021/07/16 00:47:01;;;;;;;30.27;9.95;;;;;;;;;;5111094;28;20042;-65
2021/07/16 00:49:28;;;;;;;24.02;10.05;;;;;;;;;;5089551;28;20032;-65
2021/07/16 00:51:54;;;;;;;21.85;8.85;;;;;;;;;;5109806;28;20028;-65
2021/07/16 00:54:20;;;;;;;19.25;8.40;;;;;;;;;;5109265;28;20124;-64
2021/07/16 00:56:47;;;;;;;20.02;8.68;;;;;;;;;;5109723;28;20035;-63
2021/07/16 00:59:15;;;;;;;23.42;9.15;;;;;;;;;;5090395;28;20055;-65
2021/07/16 01:01:42;;;;;;;22.77;8.38;;;;;;;;;;5109066;28;20027;-64
2021/07/16 01:04:09;;;;;;;29.80;10.70;;;;;;;;;;5090443;28;20042;-65
2021/07/16 01:06:35;;;;;;;24.00;9.98;;;;;;;;;;5109892;28;20076;-65
2021/07/16 01:09:01;;;;;;;23.88;9.18;;;;;;;;;;5109654;28;20104;-65
2021/07/16 01:11:27;;;;;;;20.92;9.13;;;;;;;;;;5108442;28;20023;-64
2021/07/16 01:13:53;;;;;;;29.33;8.30;;;;;;;;;;5109042;28;20031;-65
2021/07/16 01:16:20;;;;;;;28.45;9.35;;;;;;;;;;5109269;28;20076;-65
2021/07/16 01:18:46;;;;;;;26.75;8.90;;;;;;;;;;5109610;28;20022;-64
2021/07/16 01:21:13;;;;;;;20.17;7.85;;;;;;;;;;5108906;28;20479;-64
2021/07/16 01:23:39;;;;;;;18.95;8.50;;;;;;;;;;5107333;28;20035;-65
2021/07/16 01:26:06;;;;;;;17.92;8.35;;;;;;;;;;5108776;28;20028;-65
2021/07/16 01:28:35;;;;;;;22.60;8.77;;;;;;;;;;5107318;28;20118;-65
2021/07/16 01:31:01;;;;;;;20.65;8.80;;;;;;;;;;5107529;28;20036;-64
2021/07/16 01:33:27;;;;;;;20.65;8.43;;;;;;;;;;5092020;28;20104;-65
2021/07/16 01:35:53;;;;;;;25.13;9.07;;;;;;;;;;5108212;28;20041;-64
2021/07/16 01:38:19;;;;;;;16.85;9.15;;;;;;;;;;5107548;28;20065;-64
2021/07/16 01:40:46;;;;;;;26.38;9.88;;;;;;;;;;5109425;28;20513;-64
2021/07/16 01:43:12;;;;;;;21.35;8.85;;;;;;;;;;5110517;28;20043;-65
2021/07/16 01:45:39;;;;;;;29.75;8.98;;;;;;;;;;5107354;28;20043;-64
2021/07/16 01:48:07;;;;;;;20.67;8.57;;;;;;;;;;5107674;28;20074;-65
2021/07/16 01:50:34;;;;;;;24.13;9.93;;;;;;;;;;5109040;28;20522;-65
2021/07/16 01:53:01;;;;;;;18.85;7.80;;;;;;;;;;5109226;28;20052;-65
2021/07/16 01:55:29;;;;;;;19.98;9.00;;;;;;;;;;5108472;28;20020;-65
2021/07/16 01:57:56;;;;;;;26.83;8.55;;;;;;;;;;5109915;28;20016;-64
2021/07/16 02:00:25;;;;;;;34.67;10.10;;;;;;;;;;5109199;28;20043;-65
2021/07/16 02:03:02;;;;;;;17.35;8.50;;;;;;;;;;5090717;28;20514;-65
2021/07/16 02:05:29;;;;;;;22.65;7.80;;;;;;;;;;5088861;28;20429;-64
2021/07/16 02:07:57;;;;;;;28.52;8.05;;;;;;;;;;5108876;28;20091;-64
2021/07/16 02:10:25;;;;;;;18.70;8.80;;;;;;;;;;5106466;28;20031;-65
2021/07/16 02:12:52;;;;;;;25.63;7.45;;;;;;;;;;5109227;28;20043;-64
2021/07/16 02:15:23;;;;;;;24.75;8.23;;;;;;;;;;5108390;28;20091;-65
2021/07/16 02:17:49;;;;;;;20.23;7.05;;;;;;;;;;5109035;28;20023;-65
2021/07/16 02:20:19;;;;;;;22.80;7.38;;;;;;;;;;5108849;28;20030;-64
2021/07/16 02:22:46;;;;;;;21.65;7.40;;;;;;;;;;5109637;28;20015;-66
2021/07/16 02:25:12;;;;;;;24.45;7.60;;;;;;;;;;5108583;28;20020;-65
2021/07/16 02:27:39;;;;;;;26.10;7.95;;;;;;;;;;5109449;28;20031;-65
2021/07/16 02:30:06;;;;;;;20.65;7.38;;;;;;;;;;5108599;28;20102;-66
2021/07/16 02:32:32;;;;;;;20.58;7.18;;;;;;;;;;5109470;28;20020;-65
2021/07/16 02:34:58;;;;;;;31.17;7.18;;;;;;;;;;5089061;28;20047;-65
2021/07/16 02:37:24;;;;;;;20.45;7.32;;;;;;;;;;5108615;28;20024;-63
2021/07/16 02:39:50;;;;;;;25.08;6.53;;;;;;;;;;5108542;28;20027;-65
2021/07/16 02:42:16;;;;;;;28.25;7.32;;;;;;;;;;5109598;28;20026;-65
2021/07/16 02:44:42;;;;;;;20.13;7.07;;;;;;;;;;5104659;28;20032;-65
2021/07/16 02:47:08;;;;;;;23.73;7.15;;;;;;;;;;5090480;28;20032;-65
2021/07/16 02:49:34;;;;;;;20.58;6.57;;;;;;;;;;5107227;28;20039;-65
2021/07/16 02:52:00;;;;;;;24.13;7.50;;;;;;;;;;5107845;28;20023;-65
2021/07/16 02:54:26;;;;;;;16.98;6.88;;;;;;;;;;5107318;28;20036;-64
2021/07/16 02:56:52;;;;;;;27.77;7.60;;;;;;;;;;5108911;28;20072;-65
2021/07/16 02:59:18;;;;;;;24.10;7.78;;;;;;;;;;5111317;28;20016;-65
2021/07/16 03:01:57;;;;;;;33.00;7.53;;;;;;;;;;5092476;28;20527;-65
2021/07/16 03:04:23;;;;;;;29.25;8.20;;;;;;;;;;5107675;28;20102;-64
2021/07/16 03:06:49;;;;;;;18.80;6.03;;;;;;;;;;5110964;28;20019;-64
2021/07/16 03:09:16;;;;;;;25.00;7.40;;;;;;;;;;5111544;28;20012;-65
2021/07/16 03:11:42;;;;;;;24.75;6.35;;;;;;;;;;5111538;28;20036;-64
2021/07/16 03:14:08;;;;;;;22.63;7.15;;;;;;;;;;5111025;28;20024;-64
2021/07/16 03:16:34;;;;;;;24.55;7.05;;;;;;;;;;5112351;28;20080;-64
2021/07/16 03:19:03;;;;;;;29.65;7.53;;;;;;;;;;5112250;28;20030;-65
2021/07/16 03:21:30;;;;;;;23.88;7.68;;;;;;;;;;5111120;28;20020;-65
2021/07/16 03:23:56;;;;;;;26.20;7.30;;;;;;;;;;5111873;27;20035;-64
2021/07/16 03:26:22;;;;;;;23.98;6.97;;;;;;;;;;5112437;28;20020;-65
2021/07/16 03:28:48;;;;;;;21.00;6.80;;;;;;;;;;5092768;28;20023;-64
2021/07/16 03:31:14;;;;;;;26.60;7.50;;;;;;;;;;5109299;28;20054;-64
2021/07/16 03:33:40;;;;;;;22.27;6.72;;;;;;;;;;5092692;28;20411;-63
2021/07/16 03:36:06;;;;;;;18.20;6.03;;;;;;;;;;5111630;28;20023;-65
2021/07/16 03:38:33;;;;;;;22.45;7.32;;;;;;;;;;5109880;28;20419;-64
2021/07/16 03:41:01;;;;;;;27.67;6.97;;;;;;;;;;5111013;28;20084;-65
2021/07/16 03:43:27;;;;;;;23.85;5.63;;;;;;;;;;5111767;28;20024;-65
2021/07/16 03:45:53;;;;;;;21.33;6.35;;;;;;;;;;5111637;28;20028;-65
2021/07/16 03:48:19;;;;;;;23.50;6.35;;;;;;;;;;5112204;28;20023;-65
2021/07/16 03:50:47;;;;;;;21.95;6.30;;;;;;;;;;5111107;28;20076;-65
2021/07/16 03:53:14;;;;;;;18.23;6.30;;;;;;;;;;5111140;28;20050;-64
2021/07/16 03:55:40;;;;;;;20.70;6.75;;;;;;;;;;5110759;28;20015;-65
2021/07/16 03:58:06;;;;;;;20.92;5.88;;;;;;;;;;5110813;28;20110;-64
2021/07/16 04:00:32;;;;;;;22.48;6.22;;;;;;;;;;5110793;28;20027;-64
2021/07/16 04:02:59;;;;;;;19.25;7.20;;;;;;;;;;5110690;28;20019;-65
2021/07/16 04:05:25;;;;;;;26.63;6.20;;;;;;;;;;5109130;28;20023;-65
2021/07/16 04:07:53;;;;;;;26.13;6.22;;;;;;;;;;5109992;28;20023;-65
2021/07/16 04:10:21;;;;;;;25.58;6.10;;;;;;;;;;5110028;28;20020;-66
2021/07/16 04:12:51;;;;;;;30.25;6.40;;;;;;;;;;5111067;28;20035;-65
2021/07/16 04:15:17;;;;;;;27.73;7.43;;;;;;;;;;5110424;28;20506;-65
2021/07/16 04:17:43;;;;;;;21.77;6.85;;;;;;;;;;5111076;28;20019;-65
2021/07/16 04:20:10;;;;;;;22.08;5.95;;;;;;;;;;5111026;28;20025;-65
2021/07/16 04:22:37;;;;;;;22.67;6.72;;;;;;;;;;5111653;27;20107;-65
2021/07/16 04:25:03;;;;;;;18.58;5.57;;;;;;;;;;5109619;28;20040;-65
2021/07/16 04:27:29;;;;;;;16.60;5.32;;;;;;;;;;5110408;28;20519;-65
2021/07/16 04:29:55;;;;;;;25.73;5.78;;;;;;;;;;5092244;28;20518;-65
2021/07/16 04:32:21;;;;;;;24.30;7.18;;;;;;;;;;5109490;28;20027;-65
2021/07/16 04:34:47;;;;;;;27.05;7.72;;;;;;;;;;5109367;28;20035;-65
2021/07/16 04:37:13;;;;;;;27.23;6.93;;;;;;;;;;5110112;28;20027;-65
2021/07/16 04:39:39;;;;;;;18.52;5.32;;;;;;;;;;5109442;28;20015;-65
2021/07/16 04:42:06;;;;;;;21.27;6.15;;;;;;;;;;5109975;28;20023;-66
2021/07/16 04:44:32;;;;;;;22.02;5.25;;;;;;;;;;5109417;28;20030;-65
2021/07/16 04:46:58;;;;;;;29.52;6.20;;;;;;;;;;5108520;28;20028;-66
2021/07/16 04:49:25;;;;;;;18.80;5.25;;;;;;;;;;5109981;28;20045;-66
2021/07/16 04:51:51;;;;;;;20.65;6.45;;;;;;;;;;5108402;28;20494;-66
2021/07/16 04:54:17;;;;;;;22.00;6.95;;;;;;;;;;5108840;28;20040;-66
2021/07/16 04:56:44;;;;;;;19.27;5.25;;;;;;;;;;5088771;28;20024;-65
2021/07/16 04:59:10;;;;;;;22.52;6.28;;;;;;;;;;5109493;28;20034;-65
2021/07/16 05:01:36;;;;;;;27.08;7.00;;;;;;;;;;5088692;28;20023;-64
2021/07/16 05:04:02;;;;;;;20.45;5.70;;;;;;;;;;5107719;28;20054;-65
2021/07/16 05:06:28;;;;;;;24.00;6.32;;;;;;;;;;5108552;28;20152;-66
2021/07/16 05:08:54;;;;;;;34.25;7.47;;;;;;;;;;5108839;28;20028;-65
2021/07/16 05:11:21;;;;;;;19.42;4.80;;;;;;;;;;5108948;28;20032;-66
2021/07/16 05:13:47;;;;;;;19.42;5.28;;;;;;;;;;5108151;28;20502;-65
2021/07/16 05:16:14;;;;;;;19.70;5.90;;;;;;;;;;5110689;28;20043;-66
2021/07/16 05:18:41;;;;;;;33.92;6.78;;;;;;;;;;5107956;28;20030;-65
2021/07/16 05:21:09;;;;;;;22.02;6.80;;;;;;;;;;5103411;28;20020;-65
2021/07/16 05:23:35;;;;;;;21.33;6.15;;;;;;;;;;5108196;28;20027;-65
2021/07/16 05:26:01;;;;;;;25.50;5.22;;;;;;;;;;5108517;28;20032;-65
2021/07/16 05:28:27;;;;;;;22.90;7.18;;;;;;;;;;5108336;28;20031;-65
2021/07/16 05:30:54;;;;;;;20.73;6.00;;;;;;;;;;5108752;28;20061;-65
2021/07/16 05:33:20;;;;;;;24.88;5.50;;;;;;;;;;5106202;28;20066;-65
2021/07/16 05:35:47;;;;;;;36.92;7.65;;;;;;;;;;5109010;28;20505;-65
2021/07/16 05:38:14;;;;;;;21.52;5.50;;;;;;;;;;5089465;28;20049;-65
2021/07/16 05:40:40;;;;;;;18.95;6.50;;;;;;;;;;5107932;28;20028;-65
2021/07/16 05:43:09;;;;;;;26.75;6.35;;;;;;;;;;5109250;28;20032;-65
2021/07/16 05:45:36;;;;;;;23.50;6.82;;;;;;;;;;5092390;28;20076;-65
2021/07/16 05:48:03;;;;;;;27.27;6.15;;;;;;;;;;5111638;27;20035;-65
2021/07/16 05:50:29;;;;;;;18.15;5.18;;;;;;;;;;5110882;28;20495;-65
2021/07/16 05:52:55;;;;;;;22.60;5.47;;;;;;;;;;5109217;28;20043;-67
2021/07/16 05:55:21;;;;;;;29.15;5.43;;;;;;;;;;5081421;28;20031;-65
2021/07/16 05:57:47;;;;;;;24.92;5.63;;;;;;;;;;5108301;28;20076;-65
2021/07/16 06:00:14;;;;;;;20.90;5.10;;;;;;;;;;5109470;28;20023;-64
2021/07/16 06:02:40;;;;;;;29.98;6.90;;;;;;;;;;5102942;28;20036;-65
2021/07/16 06:05:06;;;;;;;22.55;5.63;;;;;;;;;;5104090;28;20028;-65
2021/07/16 06:07:32;;;;;;;20.23;5.43;;;;;;;;;;5109804;28;20020;-65
2021/07/16 06:09:58;;;;;;;20.42;5.15;;;;;;;;;;5105319;28;20028;-65
2021/07/16 06:12:24;;;;;;;25.65;6.85;;;;;;;;;;5107341;28;20036;-65
2021/07/16 06:14:54;;;;;;;24.92;6.07;;;;;;;;;;5109412;28;20042;-65
2021/07/16 06:17:20;;;;;;;20.00;5.18;;;;;;;;;;5109331;28;20059;-64
2021/07/16 06:19:46;;;;;;;18.75;4.30;;;;;;;;;;5104909;28;20028;-65
2021/07/16 06:22:12;;;;;;;19.02;4.80;;;;;;;;;;5110160;28;20449;-65
2021/07/16 06:24:38;;;;;;;19.45;5.55;;;;;;;;;;5104897;28;20016;-65
2021/07/16 06:27:04;;;;;;;20.35;6.25;;;;;;;;;;5106346;28;20410;-65
2021/07/16 06:29:31;;;;;;;9.90;5.15;;;;;;;;;;5109558;28;20092;-65
2021/07/16 06:31:57;;;;;;;23.50;6.13;;;;;;;;;;5103440;28;20114;-66
2021/07/16 06:34:23;;;;;;;34.92;6.82;;;;;;;;;;5106298;28;20123;-65
2021/07/16 06:36:49;;;;;;;26.48;6.25;;;;;;;;;;5110014;28;20492;-64
2021/07/16 06:39:15;;;;;;;18.60;5.40;;;;;;;;;;5109116;28;20076;-65
2021/07/16 06:41:41;;;;;;;26.48;6.47;;;;;;;;;;5112828;28;20016;-64
2021/07/16 06:44:08;;;;;;;26.95;6.22;;;;;;;;;;5108991;27;20039;-64
2021/07/16 06:46:34;;;;;;;18.73;5.10;;;;;;;;;;5109503;28;20023;-64
2021/07/16 06:49:01;;;;;;;29.20;6.38;;;;;;;;;;5108460;28;20023;-63
2021/07/16 06:51:27;;;;;;;25.20;6.50;;;;;;;;;;5108777;28;20604;-64
2021/07/16 06:53:53;;;;;;;24.77;6.20;;;;;;;;;;5109286;28;20064;-64
2021/07/16 06:56:21;;;;;;;22.58;5.40;;;;;;;;;;5108522;28;20050;-64
2021/07/16 06:58:47;;;;;;;24.02;6.70;;;;;;;;;;5088634;28;20102;-64
2021/07/16 07:01:13;;;;;;;24.10;5.47;;;;;;;;;;5109610;27;20083;-64
2021/07/16 07:03:39;;;;;;;29.73;6.15;;;;;;;;;;5109005;28;20024;-64
2021/07/16 07:06:06;;;;;;;23.40;5.68;;;;;;;;;;5106252;28;20023;-64
2021/07/16 07:08:32;;;;;;;22.17;5.20;;;;;;;;;;5111593;28;20172;-64
2021/07/16 07:10:58;;;;;;;18.88;5.97;;;;;;;;;;5110468;28;20070;-65
2021/07/16 07:13:24;;;;;;;21.10;6.03;;;;;;;;;;5112445;28;20502;-64
2021/07/16 07:15:50;;;;;;;21.77;5.38;;;;;;;;;;5108703;28;20031;-64
2021/07/16 07:18:16;;;;;;;19.15;5.25;;;;;;;;;;5091640;28;20453;-65
2021/07/16 07:20:42;;;;;;;22.77;4.72;;;;;;;;;;5112821;28;20478;-64
2021/07/16 07:23:08;;;;;;;23.13;5.63;;;;;;;;;;5104840;27;20020;-65
2021/07/16 07:25:34;;;;;;;24.77;5.65;;;;;;;;;;5109723;28;20026;-65
2021/07/16 07:28:00;;;;;;;22.33;5.47;;;;;;;;;;5106779;28;20047;-64
2021/07/16 07:30:26;;;;;;;21.83;4.63;;;;;;;;;;5110075;28;20054;-65
2021/07/16 07:32:53;;;;;;;20.27;5.80;;;;;;;;;;5111220;28;20020;-65
2021/07/16 07:35:19;;;;;;;21.05;5.72;;;;;;;;;;5113584;27;20016;-65
2021/07/16 07:37:45;;;;;;;22.05;5.68;;;;;;;;;;5094379;28;20084;-64
2021/07/16 07:40:12;;;;;;;31.70;6.20;;;;;;;;;;5108765;28;20026;-64
2021/07/16 07:42:38;;;;;;;22.65;5.65;;;;;;;;;;5105736;28;20020;-65
2021/07/16 07:45:05;;;;;;;27.30;5.93;;;;;;;;;;5105051;28;20055;-65
2021/07/16 07:47:34;;;;;;;28.73;6.13;;;;;;;;;;5106134;28;20162;-65
2021/07/16 07:50:01;;;;;;;29.95;6.30;;;;;;;;;;5106438;28;20035;-66
2021/07/16 07:52:28;;;;;;;27.38;5.85;;;;;;;;;;5090240;28;20056;-65
2021/07/16 07:54:54;;;;;;;37.28;6.53;;;;;;;;;;5088516;28;20034;-65
2021/07/16 07:57:21;;;;;;;26.70;5.22;;;;;;;;;;5107195;28;20101;-65
2021/07/16 07:59:47;;;;;;;31.17;6.82;;;;;;;;;;5091756;28;20132;-65
2021/07/16 08:02:13;;;;;;;24.00;6.90;;;;;;;;;;5100479;28;20128;-65
2021/07/16 08:04:41;;;;;;;18.15;5.82;;;;;;;;;;5109579;28;20022;-65
2021/07/16 08:07:07;;;;;;;18.45;6.30;;;;;;;;;;5109955;28;20027;-65
2021/07/16 08:09:33;;;;;;;21.35;5.72;;;;;;;;;;5111115;27;20060;-64
2021/07/16 08:12:00;;;;;;;29.02;7.20;;;;;;;;;;5107705;28;20019;-64
2021/07/16 08:14:26;;;;;;;28.23;6.45;;;;;;;;;;5110058;28;20414;-64
2021/07/16 08:16:52;;;;;;;21.50;5.38;;;;;;;;;;5105117;27;20474;-64
2021/07/16 08:19:18;;;;;;;28.23;6.90;;;;;;;;;;5107199;28;20590;-65
2021/07/16 08:21:45;;;;;;;25.25;6.60;;;;;;;;;;5108631;28;20103;-65
2021/07/16 08:24:11;;;;;;;17.05;5.13;;;;;;;;;;5084989;28;20027;-65
2021/07/16 08:26:37;;;;;;;28.88;5.82;;;;;;;;;;5108286;28;20085;-64
2021/07/16 08:29:03;;;;;;;19.88;6.07;;;;;;;;;;5110037;28;20030;-64
2021/07/16 08:31:29;;;;;;;25.50;5.90;;;;;;;;;;5097027;28;20016;-64
2021/07/16 08:33:55;;;;;;;25.05;6.93;;;;;;;;;;5109146;28;20526;-65
2021/07/16 08:36:21;;;;;;;27.17;6.55;;;;;;;;;;5111406;28;20486;-65
2021/07/16 08:38:48;;;;;;;25.80;6.38;;;;;;;;;;5112312;28;20028;-64
2021/07/16 08:41:14;;;;;;;26.58;6.82;;;;;;;;;;5109044;28;20019;-64
2021/07/16 08:43:44;;;;;;;20.63;6.40;;;;;;;;;;5110011;27;20050;-65
2021/07/16 08:46:10;;;;;;;24.27;5.80;;;;;;;;;;5107753;28;20024;-64
2021/07/16 08:48:38;;;;;;;21.83;5.80;;;;;;;;;;5108398;27;20046;-64
2021/07/16 08:51:04;;;;;;;25.63;6.50;;;;;;;;;;5101827;27;20023;-64
2021/07/16 08:53:32;;;;;;;25.63;5.43;;;;;;;;;;5101885;28;20055;-65
2021/07/16 08:55:59;;;;;;;25.40;5.78;;;;;;;;;;5100872;28;21268;-65
2021/07/16 08:58:25;;;;;;;19.75;5.78;;;;;;;;;;5106278;28;20039;-64
2021/07/16 09:00:51;;;;;;;19.65;5.50;;;;;;;;;;5094817;28;20559;-65
2021/07/16 09:03:18;;;;;;;25.30;6.20;;;;;;;;;;5110276;28;20030;-64
2021/07/16 09:05:44;;;;;;;20.42;6.55;;;;;;;;;;5105878;28;20023;-65
2021/07/16 09:08:13;;;;;;;20.88;6.25;;;;;;;;;;5108879;27;20027;-65
2021/07/16 09:10:50;;;;;;;31.45;6.88;;;;;;;;;;5114052;27;20026;-65
2021/07/16 09:13:16;;;;;;;22.38;6.53;;;;;;;;;;5104584;28;20027;-65
2021/07/16 09:15:48;;;;;;;28.25;6.45;;;;;;;;;;5104979;28;20026;-63
2021/07/16 09:18:24;;;;;;;27.13;6.78;;;;;;;;;;5105599;28;20035;-68
2021/07/16 09:21:10;;;;;;;24.75;6.43;;;;;;;;;;5081675;28;20032;-65
2021/07/16 09:23:38;;;;;;;24.75;7.97;;;;;;;;;;5089395;28;20066;-65
2021/07/16 09:26:10;;;;;;;25.90;6.25;;;;;;;;;;5101474;28;20038;-65
2021/07/16 09:28:41;;;;;;;24.13;6.18;;;;;;;;;;5105004;28;20045;-66
2021/07/16 09:31:11;;;;;;;26.10;7.70;;;;;;;;;;5107428;28;20035;-65
2021/07/16 09:33:46;;;;;;;29.85;7.35;;;;;;;;;;5102032;28;20044;-66
2021/07/16 09:36:13;;;;;;;27.33;6.50;;;;;;;;;;5111039;27;20019;-66
2021/07/16 09:38:39;;;;;;;20.10;6.05;;;;;;;;;;5097227;28;20020;-66
2021/07/16 09:41:06;;;;;;;18.17;6.45;;;;;;;;;;5106122;28;20028;-66
2021/07/16 09:43:32;;;;;;;18.52;6.75;;;;;;;;;;5084171;28;20235;-66
2021/07/16 09:46:05;;;;;;;24.45;6.78;;;;;;;;;;5099681;28;20115;-66
2021/07/16 09:48:34;;;;;;;25.25;5.53;;;;;;;;;;5098764;28;20784;-66
2021/07/16 09:51:20;;;;;;;29.67;6.93;;;;;;;;;;5084751;27;20115;-66
2021/07/16 09:53:54;;;;;;;23.15;6.53;;;;;;;;;;5077864;28;20657;-66
2021/07/16 09:56:21;;;;;;;28.73;6.88;;;;;;;;;;5099678;28;20103;-66
2021/07/16 09:58:48;;;;;;;24.95;7.78;;;;;;;;;;5099941;28;20084;-65
2021/07/16 10:01:15;;;;;;;20.63;6.43;;;;;;;;;;5097204;28;20114;-66
2021/07/16 10:03:42;;;;;;;26.67;6.88;;;;;;;;;;5099294;28;20031;-66
2021/07/16 10:06:12;;;;;;;22.85;6.50;;;;;;;;;;5098859;28;20110;-66
2021/07/16 10:08:39;;;;;;;20.60;5.97;;;;;;;;;;5096972;28;20668;-65
2021/07/16 10:11:06;;;;;;;22.65;6.90;;;;;;;;;;5082197;28;20054;-66
2021/07/16 10:13:34;;;;;;;18.40;5.95;;;;;;;;;;5099997;28;20034;-65
2021/07/16 10:16:00;;;;;;;33.03;6.68;;;;;;;;;;5097494;28;20035;-65
2021/07/16 10:18:26;;;;;;;24.20;7.13;;;;;;;;;;5097670;28;20023;-65
2021/07/16 10:20:52;;;;;;;27.05;6.43;;;;;;;;;;5100250;28;20024;-65
2021/07/16 10:23:19;;;;;;;24.58;6.22;;;;;;;;;;5096257;28;20031;-66
2021/07/16 10:25:48;;;;;;;23.45;6.43;;;;;;;;;;5097719;28;20037;-66
2021/07/16 10:28:28;;;;;;;28.50;6.38;;;;;;;;;;5100716;28;20081;-66
2021/07/16 10:30:54;;;;;;;32.53;6.40;;;;;;;;;;5082707;28;20391;-66
2021/07/16 10:33:32;;;;;;;17.25;6.40;;;;;;;;;;5081433;28;20031;-65
2021/07/16 10:35:58;;;;;;;18.85;6.25;;;;;;;;;;5100898;28;20165;-65
2021/07/16 10:38:34;;;;;;;21.83;6.00;;;;;;;;;;5101843;28;20055;-66
2021/07/16 10:41:00;;;;;;;20.25;7.22;;;;;;;;;;5099194;28;20089;-65
2021/07/16 10:43:30;;;;;;;28.58;9.15;;;;;;;;;;5099767;28;20051;-66
2021/07/16 10:46:00;;;;;;;24.00;7.32;;;;;;;;;;5098870;28;20093;-65
2021/07/16 10:48:38;;;;;;;35.15;8.38;;;;;;;;;;5099973;28;20020;-66
2021/07/16 10:51:05;;;;;;;25.70;7.68;;;;;;;;;;5099062;28;20035;-65
2021/07/16 10:53:31;;;;;;;24.25;7.35;;;;;;;;;;5095441;28;20077;-65
2021/07/16 10:55:57;;;;;;;26.67;6.57;;;;;;;;;;5082370;28;20110;-66
2021/07/16 10:58:23;;;;;;;28.58;7.57;;;;;;;;;;5100094;28;20036;-66
2021/07/16 11:00:50;;;;;;;28.67;8.05;;;;;;;;;;5101634;28;20049;-65
2021/07/16 11:03:16;;;;;;;23.35;8.52;;;;;;;;;;5079943;28;20715;-65
2021/07/16 11:05:45;;;;;;;21.77;7.70;;;;;;;;;;5099941;28;20031;-66
2021/07/16 11:08:31;;;;;;;31.05;6.72;;;;;;;;;;5101481;28;20148;-65
2021/07/16 11:11:01;;;;;;;20.20;6.97;;;;;;;;;;5099723;28;21242;-67
2021/07/16 11:13:36;;;;;;;28.25;6.95;;;;;;;;;;5102336;28;20016;-66
2021/07/16 11:16:35;;;;;;;27.90;7.80;;;;;;;;;;5101495;28;20109;-65
2021/07/16 11:19:10;;;;;;;23.15;7.70;;;;;;;;;;5088559;28;20277;-65
2021/07/16 11:21:46;;;;;;;28.70;7.75;;;;;;;;;;5084104;28;20028;-65
2021/07/16 11:24:24;;;;;;;19.70;7.22;;;;;;;;;;5099294;28;20023;-63
2021/07/16 11:26:50;;;;;;;33.30;10.15;;;;;;;;;;5100885;28;20066;-64
2021/07/16 11:29:17;;;;;;;26.42;8.30;;;;;;;;;;5104103;28;20145;-65
2021/07/16 11:31:43;;;;;;;27.17;8.23;;;;;;;;;;5098571;27;20035;-65
2021/07/16 11:34:15;;;;;;;20.77;6.60;;;;;;;;;;5101133;27;20034;-65
2021/07/16 11:36:48;;;;;;;29.13;8.07;;;;;;;;;;5099930;28;20032;-65
2021/07/16 11:39:26;;;;;;;28.02;8.40;;;;;;;;;;5082227;28;20123;-66
2021/07/16 11:41:52;;;;;;;28.67;7.82;;;;;;;;;;5102790;28;20092;-65
2021/07/16 11:44:43;;;;;;;24.92;7.85;;;;;;;;;;5084082;28;20039;-65
2021/07/16 11:47:36;;;;;;;35.30;9.35;;;;;;;;;;5088165;28;20032;-65
2021/07/16 11:50:06;;;;;;;22.23;6.95;;;;;;;;;;5098147;28;20051;-65
2021/07/16 11:52:33;;;;;;;23.05;7.60;;;;;;;;;;5098969;28;20055;-65
2021/07/16 11:55:07;;;;;;;27.38;7.80;;;;;;;;;;5099866;28;20059;-66
2021/07/16 11:57:33;;;;;;;30.15;7.80;;;;;;;;;;5101735;28;20075;-65
2021/07/16 11:59:59;;;;;;;26.63;7.53;;;;;;;;;;5100094;28;20503;-66
2021/07/16 12:02:25;;;;;;;21.27;8.02;;;;;;;;;;5101087;28;20487;-65
2021/07/16 12:04:59;;;;;;;24.52;7.80;;;;;;;;;;5099669;28;20114;-65
2021/07/16 12:07:26;;;;;;;17.40;7.95;;;;;;;;;;5106043;27;20037;-65
2021/07/16 12:09:52;;;;;;;29.92;7.70;;;;;;;;;;5102125;28;20030;-65
2021/07/16 12:12:21;;;;;;;30.45;9.55;;;;;;;;;;5089678;28;20023;-65
2021/07/16 12:14:55;;;;;;;22.90;6.95;;;;;;;;;;5100336;28;20035;-65
2021/07/16 12:17:22;;;;;;;21.45;6.85;;;;;;;;;;5103149;27;20030;-65
2021/07/16 12:19:49;;;;;;;18.27;6.65;;;;;;;;;;5084038;28;20039;-64
2021/07/16 12:22:15;;;;;;;23.05;7.13;;;;;;;;;;5103041;28;20031;-64
2021/07/16 12:24:42;;;;;;;22.48;7.18;;;;;;;;;;5105447;27;20595;-64
2021/07/16 12:27:13;;;;;;;26.05;7.03;;;;;;;;;;5106728;27;20023;-65
2021/07/16 12:29:39;;;;;;;26.42;6.68;;;;;;;;;;5084432;28;20028;-64
2021/07/16 12:32:06;;;;;;;24.27;7.75;;;;;;;;;;5098795;28;20548;-65
2021/07/16 12:34:33;;;;;;;26.45;7.38;;;;;;;;;;5100255;28;20447;-65
2021/07/16 12:37:17;;;;;;;25.45;7.15;;;;;;;;;;5087898;27;20034;-65
2021/07/16 12:39:44;;;;;;;26.85;8.65;;;;;;;;;;5083856;28;20012;-66
2021/07/16 12:42:18;;;;;;;24.65;7.10;;;;;;;;;;5084984;28;20057;-65
2021/07/16 12:45:03;;;;;;;33.30;8.73;;;;;;;;;;5100085;27;20026;-65
2021/07/16 12:47:30;;;;;;;29.30;9.75;;;;;;;;;;5103238;27;20522;-65
2021/07/16 12:50:09;;;;;;;22.08;6.28;;;;;;;;;;5103998;28;20038;-65
2021/07/16 12:52:35;;;;;;;21.25;7.53;;;;;;;;;;5079116;28;20052;-65
2021/07/16 12:55:12;;;;;;;36.22;8.35;;;;;;;;;;5098285;28;20803;-64
2021/07/16 12:57:38;;;;;;;24.55;7.57;;;;;;;;;;5101622;28;20031;-65
2021/07/16 13:00:16;;;;;;;27.58;7.72;;;;;;;;;;5102091;28;20028;-67
2021/07/16 13:02:44;;;;;;;24.77;7.78;;;;;;;;;;5100538;28;20506;-64
2021/07/16 13:05:10;;;;;;;22.63;6.85;;;;;;;;;;5083794;28;20578;-64
2021/07/16 13:07:36;;;;;;;17.88;6.68;;;;;;;;;;5101306;28;20055;-65
2021/07/16 13:10:20;;;;;;;25.73;7.50;;;;;;;;;;5102512;28;20114;-64
2021/07/16 13:12:46;;;;;;;24.30;7.00;;;;;;;;;;5101340;28;20156;-66
2021/07/16 13:15:13;;;;;;;25.70;7.82;;;;;;;;;;5099653;27;20049;-65
2021/07/16 13:17:40;;;;;;;26.23;7.15;;;;;;;;;;5101940;28;20069;-65
2021/07/16 13:20:07;;;;;;;22.33;6.80;;;;;;;;;;5100608;28;20436;-65
2021/07/16 13:22:38;;;;;;;28.23;6.68;;;;;;;;;;5090031;28;20020;-65
2021/07/16 13:25:08;;;;;;;22.42;7.75;;;;;;;;;;5100825;28;20024;-65
2021/07/16 13:27:35;;;;;;;26.70;7.78;;;;;;;;;;5107641;28;20028;-64
2021/07/16 13:30:01;;;;;;;28.65;8.32;;;;;;;;;;5091371;28;20530;-64
2021/07/16 13:32:27;;;;;;;26.17;7.70;;;;;;;;;;5107559;28;20032;-64
2021/07/16 13:34:53;;;;;;;23.45;8.00;;;;;;;;;;5105083;28;20039;-64
2021/07/16 13:37:22;;;;;;;26.05;6.43;;;;;;;;;;5108858;28;20495;-64
2021/07/16 13:39:48;;;;;;;18.30;6.90;;;;;;;;;;5090277;28;20466;-63
2021/07/16 13:42:14;;;;;;;25.63;7.38;;;;;;;;;;5107488;28;20023;-63
2021/07/16 13:44:40;;;;;;;27.05;7.88;;;;;;;;;;5106694;28;20097;-64
2021/07/16 13:47:06;;;;;;;34.00;8.70;;;;;;;;;;5109897;28;20024;-65
2021/07/16 13:49:33;;;;;;;28.92;7.70;;;;;;;;;;5105679;28;20032;-64
2021/07/16 13:51:59;;;;;;;23.75;7.78;;;;;;;;;;5106125;28;20085;-63
2021/07/16 13:54:27;;;;;;;31.77;8.43;;;;;;;;;;5101763;28;20061;-64
2021/07/16 13:56:54;;;;;;;28.88;7.80;;;;;;;;;;5087886;28;20069;-64
2021/07/16 13:59:21;;;;;;;25.65;9.02;;;;;;;;;;5108420;28;20101;-64
2021/07/16 14:01:47;;;;;;;21.20;7.53;;;;;;;;;;5102727;28;20080;-64
2021/07/16 14:04:13;;;;;;;23.48;6.80;;;;;;;;;;5102179;27;20027;-64
2021/07/16 14:06:39;;;;;;;30.10;7.97;;;;;;;;;;5086954;28;20031;-63
2021/07/16 14:09:05;;;;;;;23.90;7.05;;;;;;;;;;5101011;28;20039;-63
2021/07/16 14:11:31;;;;;;;31.85;7.40;;;;;;;;;;5100702;28;20062;-64
2021/07/16 14:13:57;;;;;;;22.73;6.90;;;;;;;;;;5081881;28;20050;-64
2021/07/16 14:16:23;;;;;;;21.42;7.38;;;;;;;;;;5105071;28;20403;-64
2021/07/16 14:18:49;;;;;;;24.58;7.68;;;;;;;;;;5082146;28;20383;-64
2021/07/16 14:21:15;;;;;;;25.25;7.72;;;;;;;;;;5084895;28;20483;-64
2021/07/16 14:23:42;;;;;;;34.35;8.40;;;;;;;;;;5097814;28;20514;-64
2021/07/16 14:26:08;;;;;;;27.13;9.38;;;;;;;;;;5084182;28;20104;-63
2021/07/16 14:28:35;;;;;;;22.45;7.55;;;;;;;;;;5102811;28;20093;-64
2021/07/16 14:31:01;;;;;;;26.17;8.23;;;;;;;;;;5101077;28;20407;-64